Mount Hermon, Louisiana
Current Conditions -  °F | °C
As of 5:53 PM on Friday 24 Oct 2014 (Local Time) from KMCB Reporting Station
Clear Clear  
Wind Chill: 71°   Ceiling: Unl
Heat Index: 71°   Visibility: 10mi
Dew Point: 45°   Wind: 7mph
Humidity: 39%   Direction: 320°NW
Pressure: 30.07"   Gusts: NA
Location:  30.96°N, 90.3°W
Report Text: KMCB 242253Z AUTO 32006KT 10SM CLR 22/07 A3007 RMK AO2 SLP181 T02170072
Loading
Personal Weather Stations






























Interactive Weather Map
Tropical Storm Tracking
New forecast layout! Learn more

10-Day Weather Forecast

Advertisements
Track Severe Weather on mobile